Mobirise responsive web design software

MIRANDELA

METAR: LPMI 260120Z VRB02KT 04/00 Q1004
Latest Report: 2018-02-26 01:24:25Z (3 minutes ago)

 07:10 LT      18:13 LT

Location: Vale da Maceira, Passos, 4km SW of Mirandela
Lat: 412813N Long: 0071340W
Elevation: 403m/1322FT
Runway: 17/35 (750x30m)
Frequency: 120.200 Mhz

Approved Traffic: VFR / Ultralight Aircraft
Hours of Operation: HJ
image

PRESENT WEATHER - MIRANDELA

Latest Report: 2018-02-26 01:24:25Z
 

VRB/02KT

4ºC

0ºC

1004 hPa

0.00 mm

WEATHER HISTORY

[ All times in Zulu ]

  SEARCH METAR HISTORY
METAR (Last Hour)
LPMI 260115Z 00000KT 04/M01 Q1004
LPMI 260105Z 02004KT 04/M01 Q1004
LPMI 260055Z 01006KT 05/M01 Q1004
LPMI 260045Z 36006KT 05/M01 Q1004
LPMI 260035Z 35006KT 05/M01 Q1004
LPMI 260025Z 34006KT 04/M02 Q1004
Wind Trend (Last Hour)
Average Wind Direction: 350 °
Average Wind Speed: 5 KT
 
Maximum Wind Speed: 8 KT
Maximum Gust: 8 KT
 
Station records since2017-03-26 10:43:05
Minimum Pressure: 991 hPa @ 2017-05-11 03:08:18
Maximum Pressure: 1033 hPa @ 2017-12-21 10:03:01
  
Minimum Temperature: -4° C @ 2018-02-24 06:53:39
Maximum Temperature: 41° C @ 2017-06-17 14:49:55
  
Maximum Wind: 37 KT @ 2017-04-19 01:11:36
Maximum Gust: 43 KT @ 2017-04-30 15:24:26
  
Maximum Daily Rain (mm): 14.73 mm @ 2018-01-10 23:59:31
Days without rain: 13 days (since 2018-02-11 18:38:36)